createdAt,value
2017-09-15T00:00:17.214Z,972.10
2017-09-15T00:01:17.263Z,972.06
2017-09-15T00:02:17.311Z,972.06
2017-09-15T00:03:17.433Z,972.04
2017-09-15T00:04:17.404Z,972.05
2017-09-15T00:05:17.453Z,972.03
2017-09-15T00:06:17.503Z,972.01
2017-09-15T00:07:17.549Z,972.05
2017-09-15T00:08:17.678Z,971.97
2017-09-15T00:09:17.645Z,972.01
2017-09-15T00:10:17.693Z,972.05
2017-09-15T00:11:17.743Z,972.00
2017-09-15T00:12:17.795Z,972.01
2017-09-15T00:13:17.905Z,972.04
2017-09-15T00:14:17.946Z,972.02
2017-09-15T00:15:17.933Z,972.01
2017-09-15T00:16:17.986Z,971.97
2017-09-15T00:17:18.029Z,972.00
2017-09-15T00:18:18.076Z,971.99
2017-09-15T00:19:18.185Z,972.03
2017-09-15T00:20:18.172Z,972.01
2017-09-15T00:21:18.225Z,972.00
2017-09-15T00:22:18.269Z,971.97
2017-09-15T00:23:18.315Z,972.04
2017-09-15T00:24:18.425Z,971.97
2017-09-15T00:25:18.415Z,971.94
2017-09-15T00:26:18.462Z,971.92
2017-09-15T00:27:18.509Z,971.99
2017-09-15T00:28:18.555Z,971.96
2017-09-15T00:29:18.665Z,971.95
2017-09-15T00:30:18.656Z,971.95
2017-09-15T00:31:18.708Z,971.92
2017-09-15T00:32:18.746Z,971.95
2017-09-15T00:33:18.796Z,971.95
2017-09-15T00:34:18.929Z,971.89
2017-09-15T00:35:18.894Z,971.89
2017-09-15T00:36:18.942Z,971.89
2017-09-15T00:37:18.987Z,971.89
2017-09-15T00:38:19.036Z,971.90
2017-09-15T00:39:19.153Z,971.89
2017-09-15T00:40:19.131Z,971.94
2017-09-15T00:41:19.183Z,971.88
2017-09-15T00:42:19.229Z,971.85
2017-09-15T00:43:19.787Z,971.86
2017-09-15T00:44:19.386Z,971.81
2017-09-15T00:45:19.440Z,971.89
2017-09-15T00:46:19.423Z,971.82
2017-09-15T00:47:19.469Z,971.83
2017-09-15T00:48:19.518Z,971.81
2017-09-15T00:49:19.564Z,971.82
2017-09-15T00:50:19.674Z,971.81
2017-09-15T00:51:19.663Z,971.79
2017-09-15T00:52:19.706Z,971.79
2017-09-15T00:53:19.761Z,971.80
2017-09-15T00:54:19.805Z,971.74
2017-09-15T00:55:19.912Z,971.75
2017-09-15T00:56:19.903Z,971.74
2017-09-15T00:57:19.946Z,971.74
2017-09-15T00:58:19.996Z,971.73
2017-09-15T00:59:20.044Z,971.68
2017-09-15T01:00:20.153Z,971.72
2017-09-15T01:01:20.143Z,971.66
2017-09-15T01:02:20.197Z,971.67
2017-09-15T01:03:20.236Z,971.66
2017-09-15T01:04:20.282Z,971.68
2017-09-15T01:05:20.413Z,971.55
2017-09-15T01:06:20.380Z,971.58
2017-09-15T01:07:20.427Z,971.55
2017-09-15T01:08:20.473Z,971.56
2017-09-15T01:09:20.521Z,971.57
2017-09-15T01:10:20.637Z,971.54
2017-09-15T01:11:20.620Z,971.56
2017-09-15T01:12:20.666Z,971.53
2017-09-15T01:13:20.716Z,971.53
2017-09-15T01:14:20.762Z,971.54
2017-09-15T01:15:20.883Z,971.55
2017-09-15T01:16:20.855Z,971.54
2017-09-15T01:17:20.911Z,971.53
2017-09-15T01:18:20.953Z,971.50
2017-09-15T01:19:20.999Z,971.47
2017-09-15T01:20:21.131Z,971.52
2017-09-15T01:21:21.094Z,971.51
2017-09-15T01:22:21.146Z,971.48
2017-09-15T01:23:21.193Z,971.51
2017-09-15T01:24:21.240Z,971.50
2017-09-15T01:25:21.351Z,971.48
2017-09-15T01:26:21.396Z,971.46
2017-09-15T01:27:21.387Z,971.40
2017-09-15T01:28:21.430Z,971.39
2017-09-15T01:29:21.477Z,971.43
2017-09-15T01:30:21.535Z,971.39
2017-09-15T01:31:21.643Z,971.34
2017-09-15T01:32:21.632Z,971.36
2017-09-15T01:33:21.667Z,971.35
2017-09-15T01:34:21.717Z,971.39
2017-09-15T01:35:21.766Z,971.36
2017-09-15T01:36:21.873Z,971.38
2017-09-15T01:37:21.858Z,971.35
2017-09-15T01:38:21.907Z,971.32
2017-09-15T01:39:21.956Z,971.34
2017-09-15T01:40:22.011Z,971.30
2017-09-15T01:41:22.115Z,971.31
2017-09-15T01:42:22.099Z,971.29
2017-09-15T01:43:22.145Z,971.29
2017-09-15T01:44:22.193Z,971.29
2017-09-15T01:45:22.241Z,971.27
2017-09-15T01:46:22.361Z,971.32
2017-09-15T01:47:22.338Z,971.36
2017-09-15T01:48:22.383Z,971.32
2017-09-15T01:49:22.434Z,971.33
2017-09-15T01:50:22.481Z,971.36
2017-09-15T01:51:22.602Z,971.35
2017-09-15T01:52:22.574Z,971.36
2017-09-15T01:53:22.622Z,971.35
2017-09-15T01:54:22.671Z,971.34
2017-09-15T01:55:22.718Z,971.38
2017-09-15T01:56:22.833Z,971.34
2017-09-15T01:57:22.881Z,971.32
2017-09-15T01:58:22.862Z,971.25
2017-09-15T01:59:22.909Z,971.27
2017-09-15T02:00:22.955Z,971.24
2017-09-15T02:01:23.004Z,971.21
2017-09-15T02:02:23.111Z,971.16
2017-09-15T02:03:23.099Z,971.12
2017-09-15T02:04:23.151Z,971.14
2017-09-15T02:05:23.193Z,971.16
2017-09-15T02:06:23.242Z,971.10
2017-09-15T02:07:23.359Z,971.07
2017-09-15T02:08:23.334Z,971.09
2017-09-15T02:09:23.392Z,971.14
2017-09-15T02:10:23.435Z,971.09
2017-09-15T02:11:23.479Z,971.12
2017-09-15T02:12:23.624Z,971.14
2017-09-15T02:13:23.574Z,971.15
2017-09-15T02:14:23.623Z,971.17
2017-09-15T02:15:23.670Z,971.09
2017-09-15T02:16:23.716Z,971.08
2017-09-15T02:17:23.829Z,971.14
2017-09-15T02:18:23.809Z,971.10
2017-09-15T02:19:23.863Z,971.06
2017-09-15T02:20:23.907Z,971.07
2017-09-15T02:21:23.951Z,971.04
2017-09-15T02:22:24.080Z,970.99
2017-09-15T02:23:24.049Z,970.97
2017-09-15T02:24:24.092Z,970.97
2017-09-15T02:25:24.139Z,970.95
2017-09-15T02:26:24.190Z,970.94
2017-09-15T02:27:24.309Z,971.00
2017-09-15T02:28:24.284Z,970.92
2017-09-15T02:29:24.328Z,970.93
2017-09-15T02:30:24.374Z,970.91
2017-09-15T02:31:24.423Z,970.94
2017-09-15T02:32:24.549Z,970.90
2017-09-15T02:33:24.519Z,970.85
2017-09-15T02:34:24.565Z,970.83
2017-09-15T02:35:24.611Z,970.84
2017-09-15T02:36:24.685Z,970.81
2017-09-15T02:37:24.770Z,970.78
2017-09-15T02:38:24.751Z,970.76
2017-09-15T02:39:24.802Z,970.72
2017-09-15T02:40:24.857Z,970.71
2017-09-15T02:41:24.893Z,970.69
2017-09-15T02:42:25.013Z,970.70
2017-09-15T02:43:24.991Z,970.72
2017-09-15T02:44:25.037Z,970.71
2017-09-15T02:45:25.085Z,970.70
2017-09-15T02:46:25.127Z,970.71
2017-09-15T02:47:25.240Z,970.72
2017-09-15T02:48:25.281Z,970.71
2017-09-15T02:49:25.266Z,970.73
2017-09-15T02:50:25.314Z,970.70
2017-09-15T02:51:25.359Z,970.74
2017-09-15T02:52:25.406Z,970.72
2017-09-15T02:53:25.524Z,970.74
2017-09-15T02:54:25.501Z,970.75
2017-09-15T02:55:25.547Z,970.72
2017-09-15T02:56:25.594Z,970.75
2017-09-15T02:57:25.640Z,970.73
2017-09-15T02:58:25.748Z,970.68
2017-09-15T02:59:25.733Z,970.67
2017-09-15T03:00:25.780Z,970.66
2017-09-15T03:01:25.826Z,970.69
2017-09-15T03:02:25.880Z,970.65
2017-09-15T03:03:25.982Z,970.64
2017-09-15T03:04:25.965Z,970.60
2017-09-15T03:05:26.014Z,970.61
2017-09-15T03:06:26.064Z,970.65
2017-09-15T03:07:26.107Z,970.63
2017-09-15T03:08:26.215Z,970.64
2017-09-15T03:09:26.203Z,970.62
2017-09-15T03:10:26.246Z,970.62
2017-09-15T03:11:26.292Z,970.61
2017-09-15T03:12:26.339Z,970.63
2017-09-15T03:13:26.468Z,970.54
2017-09-15T03:14:26.434Z,970.52
2017-09-15T03:15:26.478Z,970.51
2017-09-15T03:16:26.524Z,970.45
2017-09-15T03:17:26.571Z,970.48
2017-09-15T03:18:26.679Z,970.44
2017-09-15T03:19:26.731Z,970.43
2017-09-15T03:20:26.713Z,970.43
2017-09-15T03:21:26.763Z,970.41
2017-09-15T03:22:26.806Z,970.42
2017-09-15T03:23:26.850Z,970.41
2017-09-15T03:24:26.957Z,970.42
2017-09-15T03:25:26.944Z,970.46
2017-09-15T03:26:26.989Z,970.44
2017-09-15T03:27:27.038Z,970.41
2017-09-15T03:28:27.082Z,970.41
2017-09-15T03:29:27.189Z,970.41
2017-09-15T03:30:27.176Z,970.44
2017-09-15T03:31:27.221Z,970.41
2017-09-15T03:32:27.267Z,970.40
2017-09-15T03:33:27.318Z,970.34
2017-09-15T03:34:27.440Z,970.35
2017-09-15T03:35:27.406Z,970.38
2017-09-15T03:36:27.451Z,970.32
2017-09-15T03:37:27.497Z,970.34
2017-09-15T03:38:27.543Z,970.30
2017-09-15T03:39:27.664Z,970.26
2017-09-15T03:40:27.669Z,970.27
2017-09-15T03:41:27.683Z,970.25
2017-09-15T03:42:27.728Z,970.25
2017-09-15T03:43:27.777Z,970.26
2017-09-15T03:44:27.901Z,970.27
2017-09-15T03:45:27.868Z,970.25
2017-09-15T03:46:27.915Z,970.31
2017-09-15T03:47:27.961Z,970.25
2017-09-15T03:48:28.005Z,970.24
2017-09-15T03:49:28.116Z,970.27
2017-09-15T03:50:28.161Z,970.28
2017-09-15T03:51:28.147Z,970.27
2017-09-15T03:52:28.191Z,970.23
2017-09-15T03:53:28.250Z,970.25
2017-09-15T03:54:28.283Z,970.22
2017-09-15T03:55:28.391Z,970.24
2017-09-15T03:56:28.376Z,970.24
2017-09-15T03:57:28.422Z,970.21
2017-09-15T03:58:28.470Z,970.22
2017-09-15T03:59:28.515Z,970.18
2017-09-15T04:00:28.636Z,970.21
2017-09-15T04:01:28.612Z,970.17
2017-09-15T04:02:28.655Z,970.17
2017-09-15T04:03:28.699Z,970.15
2017-09-15T04:04:28.745Z,970.12
2017-09-15T04:05:28.852Z,970.11
2017-09-15T04:06:28.902Z,970.08
2017-09-15T04:07:28.884Z,970.07
2017-09-15T04:08:28.949Z,970.05
2017-09-15T04:09:28.976Z,970.04
2017-09-15T04:10:29.021Z,970.01
2017-09-15T04:11:29.134Z,969.99
2017-09-15T04:12:29.116Z,970.05
2017-09-15T04:13:29.163Z,970.03
2017-09-15T04:14:29.206Z,970.02
2017-09-15T04:15:29.250Z,970.04
2017-09-15T04:16:29.358Z,970.01
2017-09-15T04:17:29.345Z,970.03
2017-09-15T04:18:29.389Z,970.05
2017-09-15T04:19:29.441Z,970.03
2017-09-15T04:20:29.479Z,970.06
2017-09-15T04:21:29.596Z,970.05
2017-09-15T04:22:29.575Z,970.01
2017-09-15T04:23:29.619Z,970.04
2017-09-15T04:24:29.665Z,970.05
2017-09-15T04:25:29.711Z,970.05
2017-09-15T04:26:29.820Z,970.05
2017-09-15T04:27:29.801Z,970.04
2017-09-15T04:28:29.848Z,970.06
2017-09-15T04:29:29.898Z,970.05
2017-09-15T04:30:29.941Z,970.05
2017-09-15T04:31:30.049Z,970.08
2017-09-15T04:32:30.032Z,970.06
2017-09-15T04:33:30.077Z,970.07
2017-09-15T04:34:30.124Z,969.97
2017-09-15T04:35:30.170Z,970.03
2017-09-15T04:36:30.294Z,970.02
2017-09-15T04:37:30.265Z,969.97
2017-09-15T04:38:30.306Z,969.99
2017-09-15T04:39:30.354Z,969.99
2017-09-15T04:40:30.407Z,970.02
2017-09-15T04:41:30.517Z,969.97
2017-09-15T04:42:30.496Z,969.95
2017-09-15T04:43:30.538Z,969.94
2017-09-15T04:44:30.580Z,969.92
2017-09-15T04:45:30.630Z,969.90
2017-09-15T04:46:30.755Z,969.94
2017-09-15T04:47:30.719Z,969.91
2017-09-15T04:48:30.766Z,969.96
2017-09-15T04:49:31.453Z,969.90
2017-09-15T04:50:30.859Z,969.93
2017-09-15T04:51:30.979Z,969.93
2017-09-15T04:52:30.956Z,969.91
2017-09-15T04:53:31.002Z,969.92
2017-09-15T04:54:31.042Z,969.91
2017-09-15T04:55:31.085Z,969.94
2017-09-15T04:56:31.222Z,969.95
2017-09-15T04:57:31.181Z,969.87
2017-09-15T04:58:31.224Z,969.86
2017-09-15T04:59:31.271Z,969.85
2017-09-15T05:00:31.315Z,969.84
2017-09-15T05:01:31.432Z,969.83
2017-09-15T05:02:31.407Z,969.84
2017-09-15T05:03:31.454Z,969.80
2017-09-15T05:04:31.499Z,969.80
2017-09-15T05:05:31.547Z,969.81
2017-09-15T05:06:31.675Z,969.75
2017-09-15T05:07:31.640Z,969.75
2017-09-15T05:08:31.683Z,969.78
2017-09-15T05:09:31.728Z,969.74
2017-09-15T05:10:31.776Z,969.75
2017-09-15T05:11:31.892Z,969.75
2017-09-15T05:12:31.869Z,969.79
2017-09-15T05:13:31.910Z,969.76
2017-09-15T05:14:31.959Z,969.84
2017-09-15T05:15:32.003Z,969.78
2017-09-15T05:16:32.110Z,969.78
2017-09-15T05:17:32.156Z,969.76
2017-09-15T05:18:32.143Z,969.78
2017-09-15T05:19:32.191Z,969.76
2017-09-15T05:20:32.233Z,969.75
2017-09-15T05:21:32.278Z,969.77
2017-09-15T05:22:32.386Z,969.73
2017-09-15T05:23:32.369Z,969.75
2017-09-15T05:24:32.419Z,969.75
2017-09-15T05:25:32.459Z,969.73
2017-09-15T05:26:32.508Z,969.70
2017-09-15T05:27:32.615Z,969.71
2017-09-15T05:28:32.599Z,969.72
2017-09-15T05:29:32.645Z,969.74
2017-09-15T05:30:32.694Z,969.72
2017-09-15T05:31:32.740Z,969.68
2017-09-15T05:32:32.845Z,969.68
2017-09-15T05:33:32.833Z,969.67
2017-09-15T05:34:32.877Z,969.65
2017-09-15T05:35:32.920Z,969.66
2017-09-15T05:36:32.964Z,969.63
2017-09-15T05:37:33.079Z,969.64
2017-09-15T05:38:33.057Z,969.66
2017-09-15T05:39:33.104Z,969.66
2017-09-15T05:40:33.158Z,969.65
2017-09-15T05:41:33.201Z,969.67
2017-09-15T05:42:33.314Z,969.68
2017-09-15T05:43:33.288Z,969.64
2017-09-15T05:44:33.333Z,969.66
2017-09-15T05:45:33.380Z,969.64
2017-09-15T05:46:33.446Z,969.64
2017-09-15T05:47:33.552Z,969.62
2017-09-15T05:48:33.515Z,969.63
2017-09-15T05:49:33.562Z,969.62
2017-09-15T05:50:33.608Z,969.60
2017-09-15T05:51:33.654Z,969.62
2017-09-15T05:52:33.764Z,969.61
2017-09-15T05:53:33.806Z,969.59
2017-09-15T05:54:33.792Z,969.59
2017-09-15T05:55:33.838Z,969.59
2017-09-15T05:56:33.885Z,969.58
2017-09-15T05:57:33.928Z,969.58
2017-09-15T05:58:34.041Z,969.54
2017-09-15T05:59:34.021Z,969.54
2017-09-15T06:00:34.068Z,969.56
2017-09-15T06:01:34.114Z,969.52
2017-09-15T06:02:34.160Z,969.51
2017-09-15T06:03:34.270Z,969.53
2017-09-15T06:04:34.251Z,969.53
2017-09-15T06:05:34.302Z,969.52
2017-09-15T06:06:34.344Z,969.58
2017-09-15T06:07:34.390Z,969.57
2017-09-15T06:08:34.519Z,969.61
2017-09-15T06:09:34.483Z,969.56
2017-09-15T06:10:34.529Z,969.55
2017-09-15T06:11:34.575Z,969.56
2017-09-15T06:12:34.619Z,969.56
2017-09-15T06:13:34.740Z,969.56
2017-09-15T06:14:34.718Z,969.53
2017-09-15T06:15:34.762Z,969.58
2017-09-15T06:16:34.808Z,969.55
2017-09-15T06:17:34.852Z,969.53
2017-09-15T06:18:34.982Z,969.53
2017-09-15T06:19:34.948Z,969.55
2017-09-15T06:20:34.990Z,969.56
2017-09-15T06:21:35.040Z,969.58
2017-09-15T06:22:35.086Z,969.54
2017-09-15T06:23:35.204Z,969.56
2017-09-15T06:24:35.174Z,969.56
2017-09-15T06:25:35.250Z,969.57
2017-09-15T06:26:35.269Z,969.59
2017-09-15T06:27:35.320Z,969.55
2017-09-15T06:28:35.442Z,969.54
2017-09-15T06:29:35.411Z,969.62
2017-09-15T06:30:35.455Z,969.58
2017-09-15T06:31:35.525Z,969.58
2017-09-15T06:32:35.548Z,969.57
2017-09-15T06:33:35.666Z,969.58
2017-09-15T06:34:35.641Z,969.61
2017-09-15T06:35:35.690Z,969.56
2017-09-15T06:36:35.736Z,969.59
2017-09-15T06:37:35.780Z,969.55
2017-09-15T06:38:35.908Z,969.55
2017-09-15T06:39:35.876Z,969.58
2017-09-15T06:40:35.922Z,969.56
2017-09-15T06:41:35.968Z,969.59
2017-09-15T06:42:36.015Z,969.54
2017-09-15T06:43:36.122Z,969.56
2017-09-15T06:44:36.171Z,969.51
2017-09-15T06:45:36.158Z,969.51
2017-09-15T06:46:36.205Z,969.47
2017-09-15T06:47:36.250Z,969.46
2017-09-15T06:48:36.296Z,969.41
2017-09-15T06:49:36.413Z,969.46
2017-09-15T06:50:36.391Z,969.41
2017-09-15T06:51:36.437Z,969.37
2017-09-15T06:52:36.486Z,969.36
2017-09-15T06:53:36.535Z,969.35
2017-09-15T06:54:36.650Z,969.38
2017-09-15T06:55:36.629Z,969.36
2017-09-15T06:56:36.675Z,969.35
2017-09-15T06:57:36.724Z,969.34
2017-09-15T06:58:36.775Z,969.39
2017-09-15T06:59:36.896Z,969.40
2017-09-15T07:00:36.868Z,969.44
2017-09-15T07:01:36.915Z,969.43
2017-09-15T07:02:36.967Z,969.45
2017-09-15T07:03:37.054Z,969.41
2017-09-15T07:04:37.129Z,969.41
2017-09-15T07:05:37.172Z,969.40
2017-09-15T07:06:37.163Z,969.41
2017-09-15T07:07:37.213Z,969.41
2017-09-15T07:08:37.255Z,969.42
2017-09-15T07:09:37.307Z,969.43
2017-09-15T07:10:37.418Z,969.43
2017-09-15T07:11:37.415Z,969.44
2017-09-15T07:12:37.455Z,969.36
2017-09-15T07:13:37.504Z,969.38
2017-09-15T07:14:37.552Z,969.35
2017-09-15T07:15:37.670Z,969.33
2017-09-15T07:16:37.653Z,969.32
2017-09-15T07:17:37.700Z,969.33
2017-09-15T07:18:37.751Z,969.33
2017-09-15T07:19:37.800Z,969.30
2017-09-15T07:20:37.910Z,969.35
2017-09-15T07:21:37.898Z,969.33
2017-09-15T07:22:37.951Z,969.34
2017-09-15T07:23:38.000Z,969.33
2017-09-15T07:24:38.049Z,969.31
2017-09-15T07:25:38.158Z,969.31
2017-09-15T07:26:38.149Z,969.30
2017-09-15T07:27:38.196Z,969.29
2017-09-15T07:28:38.250Z,969.25
2017-09-15T07:29:38.304Z,969.27
2017-09-15T07:30:38.406Z,969.30
2017-09-15T07:31:38.395Z,969.30
2017-09-15T07:32:38.443Z,969.32
2017-09-15T07:33:38.504Z,969.30
2017-09-15T07:34:38.548Z,969.30
2017-09-15T07:35:38.678Z,969.29
2017-09-15T07:36:38.645Z,969.28
2017-09-15T07:37:38.702Z,969.31
2017-09-15T07:38:38.743Z,969.27
2017-09-15T07:39:38.798Z,969.27
2017-09-15T07:40:38.910Z,969.24
2017-09-15T07:41:38.896Z,969.23
2017-09-15T07:42:38.980Z,969.26
2017-09-15T07:43:38.997Z,969.22
2017-09-15T07:44:39.050Z,969.20
2017-09-15T07:45:39.179Z,969.21
2017-09-15T07:46:39.149Z,969.22
2017-09-15T07:47:39.198Z,969.25
2017-09-15T07:48:39.244Z,969.29
2017-09-15T07:49:39.297Z,969.28
2017-09-15T07:50:39.428Z,969.29
2017-09-15T07:51:39.397Z,969.32
2017-09-15T07:52:39.452Z,969.33
2017-09-15T07:53:39.501Z,969.33
2017-09-15T07:54:39.550Z,969.33
2017-09-15T07:55:39.682Z,969.36
2017-09-15T07:56:39.650Z,969.37
2017-09-15T07:57:39.702Z,969.38
2017-09-15T07:58:39.751Z,969.35
2017-09-15T07:59:39.803Z,969.35
2017-09-15T08:00:39.918Z,969.40
2017-09-15T08:01:39.965Z,969.36
2017-09-15T08:02:39.955Z,969.37
2017-09-15T08:03:40.010Z,969.33
2017-09-15T08:04:40.056Z,969.29
2017-09-15T08:05:40.108Z,969.28
2017-09-15T08:06:40.236Z,969.28
2017-09-15T08:07:40.211Z,969.29
2017-09-15T08:08:40.261Z,969.27
2017-09-15T08:09:40.312Z,969.26
2017-09-15T08:10:40.366Z,969.24
2017-09-15T08:11:40.498Z,969.31
2017-09-15T08:12:40.467Z,969.31
2017-09-15T08:13:40.519Z,969.34
2017-09-15T08:14:40.568Z,969.35
2017-09-15T08:15:40.628Z,969.38
2017-09-15T08:16:40.735Z,969.36
2017-09-15T08:17:40.784Z,969.35
2017-09-15T08:18:40.777Z,969.35
2017-09-15T08:19:40.830Z,969.39
2017-09-15T08:20:40.876Z,969.38
2017-09-15T08:21:40.927Z,969.38
2017-09-15T08:22:41.046Z,969.37
2017-09-15T08:23:41.031Z,969.36
2017-09-15T08:24:41.083Z,969.38
2017-09-15T08:25:41.135Z,969.38
2017-09-15T08:26:41.189Z,969.41
2017-09-15T08:27:41.299Z,969.42
2017-09-15T08:28:41.292Z,969.41
2017-09-15T08:29:41.344Z,969.38
2017-09-15T08:30:41.395Z,969.36
2017-09-15T08:31:41.446Z,969.36
2017-09-15T08:32:41.563Z,969.30
2017-09-15T08:33:41.548Z,969.27
2017-09-15T08:34:41.600Z,969.21
2017-09-15T08:35:41.653Z,969.21
2017-09-15T08:36:41.703Z,969.20
2017-09-15T08:37:41.837Z,969.16
2017-09-15T08:38:41.805Z,969.16
2017-09-15T08:39:41.856Z,969.12
2017-09-15T08:40:41.907Z,969.08
2017-09-15T08:41:41.959Z,969.05
2017-09-15T08:42:42.086Z,969.01
2017-09-15T08:43:42.065Z,968.97
2017-09-15T08:44:42.122Z,968.92
2017-09-15T08:45:42.169Z,968.87
2017-09-15T08:46:42.221Z,968.89
2017-09-15T08:47:42.358Z,968.85
2017-09-15T08:48:42.326Z,968.84
2017-09-15T08:49:42.373Z,968.78
2017-09-15T08:50:42.425Z,968.78
2017-09-15T08:51:42.479Z,968.77
2017-09-15T08:52:42.610Z,968.74
2017-09-15T08:53:42.582Z,968.76
2017-09-15T08:54:42.634Z,968.77
2017-09-15T08:55:42.688Z,968.75
2017-09-15T08:56:42.737Z,968.79
2017-09-15T08:57:42.866Z,968.88
2017-09-15T08:58:42.847Z,968.85
2017-09-15T08:59:42.895Z,968.95
2017-09-15T09:00:42.952Z,968.97
2017-09-15T09:01:43.001Z,969.01
2017-09-15T09:02:43.114Z,969.02
2017-09-15T09:03:43.168Z,969.03
2017-09-15T09:04:43.158Z,969.06
2017-09-15T09:05:43.213Z,969.05
2017-09-15T09:06:43.263Z,969.03
2017-09-15T09:07:43.317Z,969.07
2017-09-15T09:08:43.430Z,969.04
2017-09-15T09:09:43.425Z,969.01
2017-09-15T09:10:43.475Z,969.03
2017-09-15T09:11:43.526Z,969.07
2017-09-15T09:12:43.583Z,969.12
2017-09-15T09:13:43.699Z,969.11
2017-09-15T09:14:43.687Z,969.13
2017-09-15T09:15:43.744Z,969.13
2017-09-15T09:16:43.793Z,969.13
2017-09-15T09:17:43.847Z,969.15
2017-09-15T09:18:43.962Z,969.14
2017-09-15T09:19:43.953Z,969.09
2017-09-15T09:20:44.007Z,969.13
2017-09-15T09:21:44.065Z,969.08
2017-09-15T09:22:44.116Z,969.09
2017-09-15T09:23:44.232Z,969.09
2017-09-15T09:24:44.222Z,969.00
2017-09-15T09:25:44.274Z,968.98
2017-09-15T09:26:44.330Z,968.98
2017-09-15T09:27:44.382Z,968.96
2017-09-15T09:28:44.506Z,968.92
2017-09-15T09:29:44.491Z,968.89
2017-09-15T09:30:44.548Z,968.84
2017-09-15T09:31:44.601Z,968.83
2017-09-15T09:32:44.650Z,968.87
2017-09-15T09:33:44.770Z,968.83
2017-09-15T09:34:44.756Z,968.84
2017-09-15T09:35:44.814Z,968.83
2017-09-15T09:36:44.861Z,968.84
2017-09-15T09:37:44.917Z,968.86
2017-09-15T09:38:45.050Z,968.86
2017-09-15T09:39:45.025Z,968.88
2017-09-15T09:40:45.079Z,968.90
2017-09-15T09:41:45.131Z,968.90
2017-09-15T09:42:45.182Z,968.87
2017-09-15T09:43:45.315Z,968.87
2017-09-15T09:44:45.355Z,968.97
2017-09-15T09:45:45.343Z,968.99
2017-09-15T09:46:45.405Z,969.03
2017-09-15T09:47:45.451Z,969.02
2017-09-15T09:48:45.533Z,968.99
2017-09-15T09:49:45.619Z,969.01
2017-09-15T09:50:45.612Z,968.99
2017-09-15T09:51:45.666Z,968.95
2017-09-15T09:52:45.728Z,968.93
2017-09-15T09:53:45.772Z,968.95
2017-09-15T09:54:45.885Z,968.98
2017-09-15T09:55:45.879Z,968.96
2017-09-15T09:56:45.933Z,968.95
2017-09-15T09:57:45.985Z,969.02
2017-09-15T09:58:46.038Z,969.04
2017-09-15T09:59:46.177Z,969.04
2017-09-15T10:00:46.148Z,969.03
2017-09-15T10:01:46.205Z,969.04
2017-09-15T10:02:46.259Z,969.04
2017-09-15T10:03:46.308Z,969.02
2017-09-15T10:04:46.438Z,969.00
2017-09-15T10:05:46.489Z,968.92
2017-09-15T10:06:46.471Z,968.88
2017-09-15T10:07:46.533Z,968.87
2017-09-15T10:08:46.582Z,968.88
2017-09-15T10:09:46.637Z,968.81
2017-09-15T10:10:46.750Z,968.81
2017-09-15T10:11:46.743Z,968.76
2017-09-15T10:12:46.798Z,968.76
2017-09-15T10:13:46.851Z,968.75
2017-09-15T10:14:49.211Z,968.72
2017-09-15T10:15:47.854Z,968.69
2017-09-15T10:16:47.015Z,968.69
2017-09-15T10:17:47.171Z,968.65
2017-09-15T10:18:47.121Z,968.68
2017-09-15T10:19:47.185Z,968.64
2017-09-15T10:20:47.290Z,968.68
2017-09-15T10:21:48.026Z,968.65
2017-09-15T10:22:48.406Z,968.70
2017-09-15T10:23:47.568Z,968.69
2017-09-15T10:24:47.442Z,968.69
2017-09-15T10:25:47.560Z,968.73
2017-09-15T10:26:48.383Z,968.74
2017-09-15T10:27:47.859Z,968.71
2017-09-15T10:28:49.528Z,968.75
2017-09-15T10:29:52.216Z,968.79
2017-09-15T10:30:47.966Z,968.83
2017-09-15T10:31:48.302Z,968.88
2017-09-15T10:32:47.871Z,968.90
2017-09-15T10:33:49.797Z,968.93
2017-09-15T10:34:48.873Z,968.89
2017-09-15T10:35:49.370Z,968.90
2017-09-15T10:36:50.649Z,968.89
2017-09-15T10:37:48.135Z,968.84
2017-09-15T10:38:48.828Z,968.86
2017-09-15T10:39:49.229Z,968.83
2017-09-15T10:40:49.550Z,968.79
2017-09-15T10:41:48.769Z,968.74
2017-09-15T10:42:51.860Z,968.80
2017-09-15T10:43:49.219Z,968.75
2017-09-15T10:44:49.293Z,968.81
2017-09-15T10:45:48.629Z,968.81
2017-09-15T10:46:48.614Z,968.84
2017-09-15T10:47:48.668Z,968.81
2017-09-15T10:48:48.720Z,968.83
2017-09-15T10:49:48.771Z,968.81
2017-09-15T10:50:48.911Z,968.82
2017-09-15T10:51:48.883Z,968.83
2017-09-15T10:52:48.932Z,968.84
2017-09-15T10:53:48.987Z,968.85
2017-09-15T10:54:49.041Z,968.86
2017-09-15T10:55:49.170Z,968.89
2017-09-15T10:56:49.147Z,968.91
2017-09-15T10:57:49.204Z,968.91
2017-09-15T10:58:49.261Z,968.85
2017-09-15T10:59:49.310Z,968.81
2017-09-15T11:00:49.455Z,968.91
2017-09-15T11:01:49.419Z,968.81
2017-09-15T11:02:49.470Z,968.85
2017-09-15T11:03:49.528Z,968.85
2017-09-15T11:04:49.582Z,968.84
2017-09-15T11:05:49.708Z,968.79
2017-09-15T11:06:49.690Z,968.81
2017-09-15T11:07:49.739Z,968.83
2017-09-15T11:08:49.794Z,968.78
2017-09-15T11:09:49.851Z,968.77
2017-09-15T11:10:49.969Z,968.70
2017-09-15T11:11:49.955Z,968.79
2017-09-15T11:12:50.009Z,968.75
2017-09-15T11:13:50.069Z,968.78
2017-09-15T11:14:50.117Z,968.77
2017-09-15T11:15:50.233Z,968.74
2017-09-15T11:16:50.289Z,968.80
2017-09-15T11:17:50.283Z,968.78
2017-09-15T11:18:50.356Z,968.84
2017-09-15T11:19:50.390Z,968.89
2017-09-15T11:20:50.455Z,968.83
2017-09-15T11:21:50.556Z,968.82
2017-09-15T11:22:50.561Z,968.81
2017-09-15T11:23:50.607Z,968.80
2017-09-15T11:24:50.658Z,968.82
2017-09-15T11:25:50.718Z,968.83
2017-09-15T11:26:50.831Z,968.83
2017-09-15T11:27:50.825Z,968.79
2017-09-15T11:28:50.884Z,968.78
2017-09-15T11:29:50.936Z,968.78
2017-09-15T11:30:50.990Z,968.83
2017-09-15T11:31:51.108Z,968.80
2017-09-15T11:32:51.101Z,968.74
2017-09-15T11:33:51.159Z,968.68
2017-09-15T11:34:51.213Z,968.67
2017-09-15T11:35:51.276Z,968.71
2017-09-15T11:36:51.392Z,968.67
2017-09-15T11:37:51.378Z,968.71
2017-09-15T11:38:51.436Z,968.73
2017-09-15T11:39:51.490Z,968.70
2017-09-15T11:40:51.545Z,968.68
2017-09-15T11:41:51.674Z,968.70
2017-09-15T11:42:51.656Z,968.72
2017-09-15T11:43:51.711Z,968.72
2017-09-15T11:44:51.769Z,968.69
2017-09-15T11:45:51.824Z,968.66
2017-09-15T11:46:51.936Z,968.68
2017-09-15T11:47:51.991Z,968.65
2017-09-15T11:48:51.985Z,968.66
2017-09-15T11:49:52.041Z,968.65
2017-09-15T11:50:52.096Z,968.63
2017-09-15T11:51:52.153Z,968.65
2017-09-15T11:52:52.274Z,968.62
2017-09-15T11:53:52.268Z,968.60
2017-09-15T11:54:52.321Z,968.68
2017-09-15T11:55:52.381Z,968.62
2017-09-15T11:56:52.450Z,968.62
2017-09-15T11:57:52.572Z,968.63
2017-09-15T11:58:52.545Z,968.64
2017-09-15T11:59:52.602Z,968.61
2017-09-15T12:00:52.656Z,968.61
2017-09-15T12:01:52.712Z,968.61
2017-09-15T12:02:52.844Z,968.63
2017-09-15T12:03:52.824Z,968.68
2017-09-15T12:04:52.881Z,968.60
2017-09-15T12:05:52.938Z,968.63
2017-09-15T12:06:52.990Z,968.54
2017-09-15T12:07:53.108Z,968.55
2017-09-15T12:08:53.165Z,968.56
2017-09-15T12:09:53.158Z,968.57
2017-09-15T12:10:53.215Z,968.53
2017-09-15T12:11:53.267Z,968.47
2017-09-15T12:12:53.321Z,968.48
2017-09-15T12:13:53.442Z,968.52
2017-09-15T12:14:53.435Z,968.48
2017-09-15T12:15:53.490Z,968.51
2017-09-15T12:16:53.544Z,968.45
2017-09-15T12:17:53.604Z,968.41
2017-09-15T12:18:53.719Z,968.37
2017-09-15T12:19:53.716Z,968.35
2017-09-15T12:20:53.772Z,968.47
2017-09-15T12:21:53.827Z,968.41
2017-09-15T12:22:53.887Z,968.33
2017-09-15T12:23:54.001Z,968.35
2017-09-15T12:24:53.995Z,968.35
2017-09-15T12:25:54.056Z,968.40
2017-09-15T12:26:54.110Z,968.35
2017-09-15T12:27:54.170Z,968.43
2017-09-15T12:28:54.303Z,968.32